Time;durP1;ratioP1;P1;durP2;ratioP2;P2;SDS_P1;SDS_P2;PMS_P1;PMS_P2;Temp;Humidity;BMP_temperature;BMP_pressure;BME280_temperature;BME280_humidity;BME280_pressure;Samples;Min_cycle;Max_cycle;Signal;HPM_P1;HPM_P2
2021/08/01 00:02:06;;;;;;;;;19.25;16.25;;;;;25.85;53.38;98159.16;6230656;28;97487;-59
2021/08/01 00:05:12;;;;;;;;;15.75;15.00;;;;;25.79;53.51;98158.56;6232371;27;97597;-58
2021/08/01 00:08:16;;;;;;;;;18.00;15.00;;;;;25.70;53.68;98159.78;6226798;27;96723;-60
2021/08/01 00:11:20;;;;;;;;;16.75;15.00;;;;;25.67;53.83;98165.97;6224837;28;97324;-58
2021/08/01 00:14:23;;;;;;;;;14.00;13.20;;;;;25.62;53.76;98160.66;6231180;28;97064;-60
2021/08/01 00:17:27;;;;;;;;;18.40;15.40;;;;;25.62;53.81;98160.66;6231923;28;97434;-60
2021/08/01 00:20:31;;;;;;;;;16.40;15.00;;;;;25.59;53.96;98159.38;6231059;28;96734;-58
2021/08/01 00:23:35;;;;;;;;;15.00;14.00;;;;;25.62;53.77;98171.69;6231978;27;96849;-59
2021/08/01 00:26:38;;;;;;;;;17.50;15.50;;;;;25.63;53.75;98174.13;6230992;27;96526;-58
2021/08/01 00:29:41;;;;;;;;;16.00;15.40;;;;;25.66;53.56;98167.91;6228057;27;97423;-59
2021/08/01 00:32:44;;;;;;;;;17.50;17.00;;;;;25.63;53.56;98162.28;6230498;28;97424;-59
2021/08/01 00:35:49;;;;;;;;;14.00;13.80;;;;;25.66;53.32;98159.63;6228341;27;97545;-60
2021/08/01 00:38:52;;;;;;;;;15.40;15.00;;;;;25.71;53.21;98155.84;6225387;27;98057;-59
2021/08/01 00:41:56;;;;;;;;;15.80;14.80;;;;;25.75;53.03;98162.34;6216591;28;98556;-60
2021/08/01 00:44:59;;;;;;;;;15.00;14.00;;;;;25.73;53.09;98159.91;6213762;28;97454;-59
2021/08/01 00:48:03;;;;;;;;;17.00;15.00;;;;;25.75;53.05;98160.41;6208889;28;97064;-58
2021/08/01 00:51:08;;;;;;;;;16.00;15.00;;;;;25.77;52.59;98158.09;6202050;28;97307;-59
2021/08/01 00:54:11;;;;;;;;;15.60;15.40;;;;;25.77;52.50;98155.31;6213260;28;96643;-59
2021/08/01 00:57:15;;;;;;;;;15.80;13.80;;;;;25.81;52.29;98160.97;6212746;28;96641;-60
2021/08/01 01:00:35;;;;;;;;;16.00;15.00;;;;;25.82;52.27;98160.63;6209310;28;97580;-59
2021/08/01 01:03:46;;;;;;;;;16.80;13.40;;;;;25.79;52.27;98160.53;6205665;28;97698;-60
2021/08/01 01:06:59;;;;;;;;;17.00;16.00;;;;;25.82;52.02;98160.63;6204756;28;97720;-59
2021/08/01 01:10:08;;;;;;;;;16.00;15.00;;;;;25.86;51.69;98161.56;6206199;28;96935;-58
2021/08/01 01:13:25;;;;;;;;;15.00;14.00;;;;;25.91;51.51;98165.25;6188936;28;97751;-59
2021/08/01 01:16:37;;;;;;;;;17.40;16.00;;;;;25.95;51.23;98164.25;6212733;28;96651;-59
2021/08/01 01:20:04;;;;;;;;;15.50;14.50;;;;;25.88;51.69;98175.84;6215185;28;97450;-61
2021/08/01 01:23:27;;;;;;;;;16.40;16.00;;;;;25.84;51.85;98168.59;6207343;28;96561;-60
2021/08/01 01:27:00;;;;;;;;;16.00;14.60;;;;;25.80;51.68;98162.91;6201623;28;97049;-59
2021/08/01 01:30:06;;;;;;;;;15.00;14.00;;;;;25.79;51.75;98163.28;6208451;28;97180;-57
2021/08/01 02:52:30;;;;;;;;;12.00;11.00;;;;;25.66;51.62;98114.66;6055954;28;98394;-60
2021/08/01 03:00:04;;;;;;;;;13.00;12.00;;;;;25.57;51.44;98100.13;6071864;28;97480;-59
2021/08/01 03:03:09;;;;;;;;;12.00;11.00;;;;;25.59;51.50;98106.13;6090986;28;97405;-58
2021/08/01 03:06:15;;;;;;;;;14.50;12.00;;;;;25.62;51.57;98106.25;6089726;28;96753;-57
2021/08/01 03:09:21;;;;;;;;;13.00;11.00;;;;;25.62;51.58;98103.50;6074249;28;97386;-58
2021/08/01 03:12:25;;;;;;;;;11.00;11.00;;;;;25.59;51.77;98104.19;6077718;28;97457;-58
2021/08/01 03:15:31;;;;;;;;;13.60;12.60;;;;;25.54;51.95;98090.56;6072102;28;97049;-58
2021/08/01 03:18:34;;;;;;;;;13.00;11.00;;;;;25.44;52.21;98089.03;6058080;28;97367;-59
2021/08/01 04:54:19;;;;;;;;;14.25;14.25;;;;;26.10;52.21;98031.00;7577020;22;98871;-57
2021/08/01 04:57:22;;;;;;;;;15.00;13.00;;;;;26.46;52.10;98076.44;6066641;28;97555;-58
2021/08/01 05:00:27;;;;;;;;;16.00;14.25;;;;;26.52;51.67;98080.59;6067463;28;97389;-58
2021/08/01 05:03:30;;;;;;;;;15.00;13.75;;;;;26.58;51.95;98085.56;6067459;28;97674;-56
2021/08/01 05:06:34;;;;;;;;;15.80;14.00;;;;;26.65;51.86;98087.72;6067329;28;96835;-58
2021/08/01 05:09:39;;;;;;;;;16.50;15.50;;;;;26.72;51.48;98091.53;6067166;28;98052;-58
2021/08/01 05:12:42;;;;;;;;;16.00;15.00;;;;;26.82;51.46;98093.03;6067853;28;96540;-58
2021/08/01 05:15:46;;;;;;;;;16.00;15.00;;;;;26.81;52.25;98085.06;6052384;28;97065;-57
2021/08/01 05:18:50;;;;;;;;;15.80;15.00;;;;;26.90;51.76;98091.31;6059810;28;96664;-58
2021/08/01 05:21:54;;;;;;;;;15.67;14.00;;;;;26.92;52.00;98098.13;6068417;28;97724;-57
2021/08/01 05:25:00;;;;;;;;;15.80;14.00;;;;;26.87;52.48;98101.13;6068189;28;97539;-58
2021/08/01 05:28:04;;;;;;;;;16.00;13.80;;;;;26.84;52.29;98106.47;6055379;28;97480;-58
2021/08/01 05:31:08;;;;;;;;;15.00;15.00;;;;;26.78;51.39;98113.41;6068379;28;97483;-57
2021/08/01 05:34:12;;;;;;;;;14.40;14.00;;;;;26.71;51.08;98100.97;6057828;28;97037;-58
2021/08/01 05:37:15;;;;;;;;;15.00;13.75;;;;;26.74;51.49;98107.75;6060874;28;96550;-57
2021/08/01 05:40:20;;;;;;;;;14.00;13.00;;;;;26.82;51.49;98103.28;6052660;28;96688;-57
2021/08/01 05:43:23;;;;;;;;;16.80;13.20;;;;;26.90;51.66;98108.72;6061034;28;97214;-57
2021/08/01 05:46:27;;;;;;;;;14.00;13.00;;;;;27.00;51.87;98107.44;6069751;28;97510;-57
2021/08/01 05:49:32;;;;;;;;;17.00;15.60;;;;;27.09;51.73;98108.09;6053586;28;96528;-58
2021/08/01 05:52:35;;;;;;;;;14.00;14.00;;;;;27.13;51.12;98109.81;6061953;28;97061;-58
2021/08/01 05:55:40;;;;;;;;;16.00;15.00;;;;;27.15;50.62;98103.94;6078644;28;97472;-58
2021/08/01 05:58:44;;;;;;;;;13.60;13.00;;;;;27.15;51.18;98099.22;6091668;28;97325;-57
2021/08/01 06:01:47;;;;;;;;;17.00;14.60;;;;;27.16;50.30;98102.78;6089392;28;97329;-59
2021/08/01 06:04:52;;;;;;;;;17.00;15.00;;;;;27.08;50.09;98112.81;6086483;28;97822;-58
2021/08/01 06:07:56;;;;;;;;;19.00;17.00;;;;;27.09;50.22;98119.16;6088447;28;97416;-57
2021/08/01 06:11:05;;;;;;;;;18.00;16.00;;;;;27.02;50.99;98102.38;6090816;28;98174;-57
2021/08/01 06:14:08;;;;;;;;;17.00;16.00;;;;;27.04;50.99;98105.56;6088607;28;97989;-57
2021/08/01 06:17:12;;;;;;;;;16.60;15.60;;;;;27.14;52.04;98110.63;6089562;28;96683;-59
2021/08/01 06:20:15;;;;;;;;;17.20;15.00;;;;;27.14;51.52;98107.84;6073567;28;96773;-57
2021/08/01 06:23:20;;;;;;;;;18.00;16.60;;;;;27.23;50.97;98102.19;6071237;28;97567;-58
2021/08/01 06:26:25;;;;;;;;;19.00;17.00;;;;;27.31;51.69;98096.53;6070220;28;97740;-58
2021/08/01 06:29:30;;;;;;;;;18.00;16.00;;;;;27.40;51.66;98091.66;6088163;28;98019;-57
2021/08/01 06:32:33;;;;;;;;;18.67;17.00;;;;;27.52;50.86;98085.28;6071734;28;98897;-57
2021/08/01 06:35:38;;;;;;;;;18.20;17.00;;;;;27.64;50.19;98079.72;6090109;28;97279;-58
2021/08/01 06:38:43;;;;;;;;;16.00;14.40;;;;;27.74;50.43;98079.19;6087591;28;97506;-59
2021/08/01 06:41:48;;;;;;;;;17.40;16.00;;;;;27.87;50.44;98077.16;6063345;28;97711;-59
2021/08/01 06:44:51;;;;;;;;;17.75;15.00;;;;;27.96;49.95;98086.91;6090979;28;96831;-58
2021/08/01 06:47:54;;;;;;;;;16.00;15.00;;;;;28.05;49.41;98078.47;6087506;28;97615;-57
2021/08/01 06:50:58;;;;;;;;;17.00;16.00;;;;;28.14;49.80;98072.78;6088629;28;98076;-58
2021/08/01 06:54:01;;;;;;;;;13.00;12.40;;;;;28.18;48.73;98093.06;6089885;28;97417;-58
2021/08/01 06:57:06;;;;;;;;;17.40;15.60;;;;;28.27;48.78;98094.50;6066481;28;97514;-57
2021/08/01 07:00:10;;;;;;;;;17.00;16.00;;;;;28.38;48.83;98103.91;6066742;28;97196;-59
2021/08/01 07:03:15;;;;;;;;;16.50;16.50;;;;;28.54;49.19;98098.31;6052339;28;97299;-59
2021/08/01 07:06:30;;;;;;;;;19.20;16.40;;;;;28.68;48.96;98109.78;6053905;28;97163;-58
2021/08/01 07:09:40;;;;;;;;;18.00;18.00;;;;;28.84;48.55;98095.91;6064904;28;98700;-58
2021/08/01 07:12:45;;;;;;;;;18.00;17.00;;;;;28.89;48.63;98087.31;6051447;28;97522;-58
2021/08/01 07:15:49;;;;;;;;;17.00;16.60;;;;;28.93;48.09;98084.63;6034913;28;97039;-58
2021/08/01 07:18:54;;;;;;;;;23.25;17.75;;;;;28.82;47.65;98082.44;6053602;28;96584;-59
2021/08/01 07:21:57;;;;;;;;;19.00;17.00;;;;;28.71;47.84;98069.44;6065959;28;97421;-58
2021/08/01 07:25:01;;;;;;;;;18.00;17.00;;;;;28.67;47.86;98080.44;6051485;28;97428;-57
2021/08/01 07:28:06;;;;;;;;;17.60;16.60;;;;;28.61;48.62;98076.34;6055560;28;97552;-57
2021/08/01 07:31:09;;;;;;;;;18.80;17.00;;;;;28.57;48.26;98082.97;6064197;28;98701;-57
2021/08/01 07:34:13;;;;;;;;;19.00;17.00;;;;;28.50;49.17;98077.22;6065769;28;97500;-58
2021/08/01 07:37:16;;;;;;;;;19.50;19.00;;;;;28.40;49.07;98073.03;6066034;28;97120;-58
2021/08/01 07:40:22;;;;;;;;;20.80;19.20;;;;;28.34;49.61;98074.47;6065959;28;97064;-58
2021/08/01 07:43:27;;;;;;;;;19.60;17.60;;;;;28.27;48.99;98075.09;6042823;28;99277;-59
2021/08/01 07:46:30;;;;;;;;;21.00;18.00;;;;;28.21;49.42;98070.97;6065587;28;97543;-58
2021/08/01 07:49:34;;;;;;;;;17.50;17.00;;;;;28.21;49.34;98059.88;6065891;28;97956;-58
2021/08/01 07:52:39;;;;;;;;;17.60;16.00;;;;;28.23;50.10;98048.44;6066402;28;97485;-57
2021/08/01 07:55:44;;;;;;;;;19.00;19.00;;;;;28.23;50.49;98043.72;6082674;28;97544;-58
2021/08/01 07:58:49;;;;;;;;;14.00;13.00;;;;;28.22;49.67;98008.84;6092333;28;96820;-59
2021/08/01 08:01:53;;;;;;;;;17.00;15.00;;;;;28.16;49.52;97982.56;6090078;28;97640;-58
2021/08/01 08:04:56;;;;;;;;;15.00;14.80;;;;;28.18;49.85;97963.63;6089629;28;97573;-59
2021/08/01 08:08:00;;;;;;;;;17.00;15.00;;;;;28.17;49.85;97964.78;6074989;28;97492;-58
2021/08/01 08:11:05;;;;;;;;;16.00;15.00;;;;;28.14;50.05;97959.97;6094062;28;97536;-58
2021/08/01 08:14:10;;;;;;;;;15.60;14.60;;;;;28.21;50.44;97940.72;6094002;28;98881;-57
2021/08/01 08:17:17;;;;;;;;;14.00;13.00;;;;;28.25;49.98;97957.41;6092287;28;97369;-57
2021/08/01 08:20:20;;;;;;;;;16.00;15.00;;;;;28.26;49.76;97964.56;6092869;28;97457;-58
2021/08/01 08:23:24;;;;;;;;;14.20;14.20;;;;;28.31;49.57;97950.44;6092844;28;98002;-58
2021/08/01 08:26:30;;;;;;;;;15.50;13.00;;;;;28.37;49.42;97941.50;6090432;28;97428;-59
2021/08/01 08:29:36;;;;;;;;;14.25;13.25;;;;;28.28;49.37;97942.84;6092847;28;99246;-60
2021/08/01 08:32:41;;;;;;;;;15.00;15.00;;;;;28.30;49.77;97946.88;6077633;28;98696;-59
2021/08/01 08:35:45;;;;;;;;;14.00;13.00;;;;;28.34;49.54;97928.38;6092929;28;97450;-60
2021/08/01 08:38:48;;;;;;;;;14.20;12.20;;;;;28.41;50.04;97941.56;6089079;28;98176;-60
2021/08/01 08:41:56;;;;;;;;;14.00;13.00;;;;;28.54;49.38;97936.72;6091979;28;98598;-58
2021/08/01 08:45:06;;;;;;;;;14.00;12.33;;;;;28.54;49.23;97950.59;6093890;28;96916;-59
2021/08/01 08:48:09;;;;;;;;;14.75;14.00;;;;;28.59;49.82;97944.75;6080641;28;98169;-60
2021/08/01 08:51:13;;;;;;;;;17.40;14.40;;;;;28.63;49.90;97970.59;6090432;28;96718;-60
2021/08/01 08:54:23;;;;;;;;;12.60;12.60;;;;;28.67;49.50;97972.28;6091887;28;97167;-60
2021/08/01 08:57:31;;;;;;;;;12.40;12.00;;;;;28.61;49.36;97990.34;6091932;28;96754;-60
2021/08/01 09:00:36;;;;;;;;;14.60;14.00;;;;;28.52;49.27;98019.44;6090871;28;98654;-58
2021/08/01 09:03:44;;;;;;;;;12.00;12.00;;;;;28.38;49.91;98039.34;6090701;28;97205;-58
2021/08/01 09:06:48;;;;;;;;;14.00;13.00;;;;;28.35;50.63;98035.28;6066718;28;97328;-60
2021/08/01 09:09:52;;;;;;;;;13.00;11.75;;;;;28.26;51.13;98043.00;6090561;28;98087;-60
2021/08/01 09:12:55;;;;;;;;;13.75;13.00;;;;;28.18;50.92;98049.53;6090249;28;97006;-59
2021/08/01 09:16:00;;;;;;;;;14.00;12.00;;;;;28.12;51.63;98064.00;6090625;28;96783;-60
2021/08/01 09:19:04;;;;;;;;;14.40;14.00;;;;;28.03;52.38;98066.91;6072534;28;97255;-59
2021/08/01 09:22:16;;;;;;;;;14.40;12.40;;;;;28.02;52.72;98085.50;6089976;28;97527;-59
2021/08/01 09:25:23;;;;;;;;;12.40;12.00;;;;;27.96;53.18;98097.19;6083229;28;98691;-59
2021/08/01 09:28:28;;;;;;;;;15.80;13.00;;;;;28.00;53.56;98103.66;6086511;28;97475;-59
2021/08/01 09:31:34;;;;;;;;;12.80;12.00;;;;;27.89;53.28;98100.59;6090311;28;96680;-59
2021/08/01 09:34:46;;;;;;;;;12.00;11.00;;;;;27.79;53.32;98100.28;6087994;28;97823;-58
2021/08/01 09:37:56;;;;;;;;;13.40;12.40;;;;;27.73;53.72;98094.19;6089498;28;99516;-59
2021/08/01 09:41:04;;;;;;;;;11.75;11.00;;;;;27.56;53.08;98089.75;6087685;28;97448;-59
2021/08/01 09:44:10;;;;;;;;;11.60;11.00;;;;;27.49;53.53;98091.53;6070985;28;97254;-60
2021/08/01 09:47:22;;;;;;;;;9.00;8.75;;;;;27.39;53.92;98073.44;6077998;28;97465;-58
2021/08/01 09:50:26;;;;;;;;;10.40;10.00;;;;;27.21;54.10;98049.16;6091463;28;97571;-58
2021/08/01 09:53:30;;;;;;;;;9.00;9.00;;;;;27.14;54.32;98014.59;6081227;28;97024;-58
2021/08/01 09:56:35;;;;;;;;;11.00;10.00;;;;;26.88;53.30;97994.84;6089885;28;97353;-58
2021/08/01 09:59:38;;;;;;;;;9.25;9.00;;;;;26.67;53.32;97988.66;6089141;28;97448;-57
2021/08/01 10:02:43;;;;;;;;;9.00;9.00;;;;;26.51;54.11;97999.63;6088266;28;97542;-58
2021/08/01 10:06:07;;;;;;;;;9.00;8.00;;;;;26.45;53.27;98012.06;6090037;28;97659;-57
2021/08/01 10:09:25;;;;;;;;;7.25;7.00;;;;;26.38;53.34;97995.25;6090622;28;96605;-57
2021/08/01 10:12:45;;;;;;;;;7.00;7.00;;;;;26.38;52.28;97978.69;6071124;28;96984;-58
2021/08/01 10:15:48;;;;;;;;;7.40;7.00;;;;;26.57;52.51;97967.81;6086632;28;98032;-57
2021/08/01 10:18:55;;;;;;;;;7.00;6.25;;;;;26.56;52.70;97949.63;6088787;28;97879;-58
2021/08/01 10:22:00;;;;;;;;;6.80;6.00;;;;;26.73;51.98;97899.56;6088997;28;97696;-58
2021/08/01 10:25:08;;;;;;;;;8.80;8.00;;;;;27.27;52.11;97912.16;6072153;28;99355;-57
2021/08/01 10:28:12;;;;;;;;;7.00;6.00;;;;;27.56;51.84;97897.94;6087691;28;96580;-59
2021/08/01 10:31:22;;;;;;;;;6.00;5.00;;;;;27.86;50.12;97876.09;6089317;28;97403;-59
2021/08/01 10:34:38;;;;;;;;;6.40;6.40;;;;;27.80;49.88;97875.59;6090461;28;97097;-57
2021/08/01 10:37:55;;;;;;;;;6.60;5.60;;;;;28.00;48.94;97887.56;6088069;28;96676;-58
2021/08/01 10:41:01;;;;;;;;;4.40;4.00;;;;;27.81;48.48;97898.53;6088152;28;96851;-57
2021/08/01 10:44:10;;;;;;;;;4.40;4.40;;;;;27.56;49.02;97931.94;6086381;28;97295;-58
2021/08/01 10:47:14;;;;;;;;;6.25;6.25;;;;;27.36;49.40;97921.91;6086099;28;97492;-58
2021/08/01 10:50:23;;;;;;;;;5.40;5.00;;;;;27.11;49.62;97946.13;6086545;28;97444;-59
2021/08/01 10:53:28;;;;;;;;;5.00;4.20;;;;;26.94;50.07;97904.13;6085880;28;97433;-59
2021/08/01 10:56:35;;;;;;;;;4.00;4.00;;;;;26.81;51.20;97910.84;6069079;28;96856;-58
2021/08/01 11:00:04;;;;;;;;;6.50;6.00;;;;;26.83;50.70;97881.66;6086981;28;96831;-59
2021/08/01 11:03:18;;;;;;;;;4.00;4.00;;;;;26.89;50.75;97916.25;6088369;28;97662;-57
2021/08/01 11:06:44;;;;;;;;;5.00;4.50;;;;;26.89;51.29;97909.91;6084934;28;96891;-57
2021/08/01 11:10:23;;;;;;;;;5.00;4.40;;;;;26.97;51.30;97889.63;6086701;28;97114;-57
2021/08/01 11:13:41;;;;;;;;;4.80;4.20;;;;;27.00;50.23;97898.00;6081426;28;96924;-60
2021/08/01 11:16:49;;;;;;;;;4.80;4.20;;;;;27.09;49.99;97884.81;6084763;28;98175;-58
2021/08/01 11:19:52;;;;;;;;;5.00;4.75;;;;;27.14;50.02;97883.75;6085837;28;97442;-59
2021/08/01 11:22:58;;;;;;;;;4.00;4.00;;;;;27.18;49.76;97881.88;6083767;28;97589;-58
2021/08/01 11:26:09;;;;;;;;;3.00;3.00;;;;;27.55;49.63;97868.66;6089198;28;97129;-59
2021/08/01 11:29:13;;;;;;;;;6.80;5.80;;;;;27.98;50.11;97859.38;6088503;28;97224;-59
2021/08/01 11:32:17;;;;;;;;;6.25;6.00;;;;;27.99;47.27;97852.69;6088749;28;97139;-59
2021/08/01 11:35:24;;;;;;;;;4.00;4.00;;;;;27.96;48.54;97856.16;6090111;28;96786;-58
2021/08/01 11:38:35;;;;;;;;;3.50;3.00;;;;;27.80;48.05;97866.50;6072871;28;96982;-58
2021/08/01 11:41:40;;;;;;;;;5.00;3.75;;;;;27.74;48.19;97867.91;6091007;28;97446;-59
2021/08/01 11:44:57;;;;;;;;;4.00;3.40;;;;;27.69;48.03;97863.47;6072107;28;96540;-57
2021/08/01 11:48:04;;;;;;;;;5.00;4.60;;;;;27.52;48.41;97839.69;6090230;28;97487;-58
2021/08/01 11:51:09;;;;;;;;;4.00;4.00;;;;;27.46;48.58;97827.28;6090425;28;96723;-59
2021/08/01 11:54:18;;;;;;;;;4.00;4.00;;;;;27.54;48.67;97834.63;6081258;28;97866;-58
2021/08/01 11:57:29;;;;;;;;;4.00;3.00;;;;;27.55;48.03;97827.13;6083522;28;96787;-60
2021/08/01 12:00:32;;;;;;;;;4.00;4.00;;;;;27.72;48.25;97843.34;6084450;28;97493;-58
2021/08/01 12:03:39;;;;;;;;;5.00;4.00;;;;;27.82;47.87;97830.91;6064722;28;96658;-59
2021/08/01 12:06:44;;;;;;;;;4.00;4.00;;;;;27.91;47.69;97831.50;6081854;28;96523;-60
2021/08/01 12:09:50;;;;;;;;;4.40;4.40;;;;;27.93;46.72;97824.47;6088136;28;96760;-58
2021/08/01 12:12:59;;;;;;;;;5.80;5.80;;;;;27.91;45.83;97821.25;6078642;28;96985;-59
2021/08/01 12:16:02;;;;;;;;;4.40;4.40;;;;;27.86;46.74;97804.91;6075599;28;97447;-58
2021/08/01 12:19:13;;;;;;;;;5.60;5.60;;;;;27.86;46.61;97802.13;6088116;28;97191;-59
2021/08/01 12:22:19;;;;;;;;;4.00;4.00;;;;;27.75;46.09;97800.28;6051495;28;97939;-59
2021/08/01 12:25:24;;;;;;;;;4.00;3.00;;;;;27.87;47.10;97803.75;6088995;28;96519;-58
2021/08/01 12:28:38;;;;;;;;;4.00;3.50;;;;;27.88;46.19;97801.78;6088148;28;97644;-59
2021/08/01 12:31:43;;;;;;;;;3.50;3.50;;;;;27.92;47.13;97806.22;6088236;28;98548;-60
2021/08/01 12:34:47;;;;;;;;;4.00;4.00;;;;;27.97;47.72;97805.16;6087422;28;97956;-59
2021/08/01 12:37:57;;;;;;;;;4.00;4.00;;;;;28.04;48.16;97805.31;6080092;28;97528;-58
2021/08/01 12:41:12;;;;;;;;;2.60;2.60;;;;;28.06;47.57;97805.75;6084642;28;98639;-59
2021/08/01 12:44:18;;;;;;;;;2.60;2.60;;;;;28.16;47.04;97796.88;6091477;28;97336;-60
2021/08/01 12:47:23;;;;;;;;;3.20;3.00;;;;;28.28;47.36;97794.00;6090666;28;97688;-58
2021/08/01 12:50:28;;;;;;;;;3.00;3.00;;;;;28.37;47.13;97796.53;6090816;28;98347;-59
2021/08/01 12:53:32;;;;;;;;;3.00;3.00;;;;;28.44;47.32;97802.25;6056212;28;97185;-59
2021/08/01 12:56:38;;;;;;;;;3.00;3.00;;;;;28.57;46.85;97797.34;6091357;28;98397;-59
2021/08/01 12:59:42;;;;;;;;;5.00;4.00;;;;;28.66;46.07;97814.56;6073718;28;97527;-59
2021/08/01 13:02:45;;;;;;;;;5.00;5.00;;;;;28.76;45.91;97803.69;6092602;28;96596;-60
2021/08/01 13:05:54;;;;;;;;;3.20;3.00;;;;;28.90;46.27;97794.84;6091271;28;96714;-57
2021/08/01 13:09:00;;;;;;;;;4.00;4.00;;;;;29.12;45.93;97791.28;6090463;28;98258;-57
2021/08/01 13:12:13;;;;;;;;;3.40;3.40;;;;;29.19;45.00;97782.25;6087683;28;98942;-57
2021/08/01 13:15:28;;;;;;;;;3.60;3.00;;;;;29.25;45.31;97781.59;6091784;28;97496;-57
2021/08/01 13:18:35;;;;;;;;;3.33;3.00;;;;;29.34;45.08;97791.66;6093029;28;97366;-57
2021/08/01 13:21:39;;;;;;;;;4.00;4.00;;;;;29.39;43.98;97780.25;6092317;28;97373;-58
2021/08/01 13:24:44;;;;;;;;;3.00;2.50;;;;;29.28;43.63;97777.25;6089276;28;97344;-57
2021/08/01 13:27:52;;;;;;;;;4.00;4.00;;;;;29.43;44.20;97770.00;6077530;28;98467;-59
2021/08/01 13:31:05;;;;;;;;;3.00;2.00;;;;;29.51;42.65;97774.50;6087865;28;96420;-58
2021/08/01 13:34:12;;;;;;;;;3.00;3.00;;;;;29.68;43.06;97776.75;6090263;28;96697;-57
2021/08/01 13:37:28;;;;;;;;;5.00;3.75;;;;;29.99;43.13;97776.44;6089540;28;97485;-59
2021/08/01 13:40:37;;;;;;;;;3.00;3.00;;;;;30.31;42.71;97774.06;6087926;28;96712;-58
2021/08/01 13:43:45;;;;;;;;;3.00;3.00;;;;;30.57;42.23;97764.88;6090392;28;97930;-58
2021/08/01 13:47:14;;;;;;;;;4.00;3.00;;;;;30.67;40.90;97766.19;6087224;28;96756;-57
2021/08/01 13:50:18;;;;;;;;;2.00;2.00;;;;;30.80;40.62;97762.75;6089888;28;97563;-59
2021/08/01 13:53:22;;;;;;;;;2.00;2.00;;;;;30.93;39.50;97761.31;6090422;28;97470;-59
2021/08/01 13:56:26;;;;;;;;;3.00;2.60;;;;;31.04;38.61;97746.69;6089331;28;97988;-60
2021/08/01 13:59:31;;;;;;;;;2.00;2.00;;;;;31.14;38.04;97746.00;6087019;28;97428;-58
2021/08/01 14:02:34;;;;;;;;;3.00;3.00;;;;;31.06;37.71;97739.56;6089420;28;97262;-59
2021/08/01 14:05:38;;;;;;;;;2.00;2.00;;;;;31.10;38.52;97732.03;6090279;28;97146;-57
2021/08/01 14:08:42;;;;;;;;;3.00;2.00;;;;;31.26;40.19;97743.72;6091241;28;99115;-59
2021/08/01 14:11:45;;;;;;;;;2.80;2.80;;;;;31.32;38.24;97735.81;6089039;28;97363;-58
2021/08/01 14:14:54;;;;;;;;;2.00;2.00;;;;;31.37;40.16;97724.31;6083088;28;97578;-58
2021/08/01 14:17:57;;;;;;;;;3.50;3.00;;;;;31.47;40.54;97733.94;6086838;28;97302;-58
2021/08/01 14:21:01;;;;;;;;;3.00;3.00;;;;;31.46;39.43;97723.97;6085921;28;97308;-57
2021/08/01 14:24:06;;;;;;;;;3.00;3.00;;;;;31.46;39.06;97708.06;6088879;28;98596;-59
2021/08/01 14:27:12;;;;;;;;;3.50;3.00;;;;;31.32;38.67;97689.28;6089752;28;96698;-58
2021/08/01 14:30:18;;;;;;;;;4.00;4.00;;;;;31.32;38.03;97706.00;6089938;28;97567;-59
2021/08/01 14:33:25;;;;;;;;;2.00;2.00;;;;;31.30;38.23;97713.13;6084843;28;98038;-59
2021/08/01 14:36:30;;;;;;;;;2.00;2.00;;;;;31.20;39.34;97722.19;6084053;28;97753;-59
2021/08/01 14:39:34;;;;;;;;;3.00;3.00;;;;;31.14;40.68;97715.38;6088915;28;97526;-59
2021/08/01 14:42:38;;;;;;;;;4.00;3.00;;;;;31.11;39.77;97711.38;6088182;28;96662;-58
2021/08/01 14:45:44;;;;;;;;;3.00;3.00;;;;;31.11;40.62;97716.94;6086187;28;97676;-58
2021/08/01 14:48:47;;;;;;;;;3.75;3.75;;;;;31.07;41.13;97710.56;6090945;28;97423;-58
2021/08/01 14:55:14;;;;;;;;;4.00;4.00;;;;;30.92;41.72;97692.91;6082970;28;97133;-59
2021/08/01 14:58:25;;;;;;;;;3.00;3.00;;;;;30.86;42.33;97683.31;6087255;28;96758;-59
2021/08/01 15:01:37;;;;;;;;;5.00;5.00;;;;;30.82;42.48;97665.78;6086481;28;97555;-58
2021/08/01 15:04:51;;;;;;;;;4.00;3.00;;;;;30.79;42.91;97660.97;6091536;28;96631;-58
2021/08/01 15:07:59;;;;;;;;;4.00;4.00;;;;;30.75;43.13;97653.78;6087851;28;97577;-58
2021/08/01 15:11:04;;;;;;;;;4.00;3.00;;;;;30.69;43.19;97641.41;6089039;28;96965;-58
2021/08/01 15:14:15;;;;;;;;;3.00;3.00;;;;;30.66;43.89;97639.38;6083954;28;96432;-58
2021/08/01 15:17:28;;;;;;;;;4.00;3.60;;;;;30.55;43.33;97636.50;6087296;28;97333;-59
2021/08/01 15:20:35;;;;;;;;;2.50;2.50;;;;;30.52;43.38;97637.28;6089409;28;97480;-57
2021/08/01 15:23:52;;;;;;;;;2.00;2.00;;;;;30.46;43.86;97630.47;6091136;28;97645;-58
2021/08/01 15:26:56;;;;;;;;;3.00;3.00;;;;;30.34;43.91;97628.75;6089154;28;97394;-58
2021/08/01 15:30:02;;;;;;;;;2.00;2.00;;;;;30.26;44.60;97617.91;6089054;28;97596;-59
2021/08/01 15:33:07;;;;;;;;;3.00;3.00;;;;;30.16;45.08;97613.84;6089713;28;97812;-58
2021/08/01 15:36:11;;;;;;;;;4.00;3.00;;;;;30.10;45.59;97624.50;6089759;28;98011;-58
2021/08/01 15:39:16;;;;;;;;;2.00;2.00;;;;;29.99;45.76;97615.25;6087900;28;97490;-59
2021/08/01 15:42:20;;;;;;;;;3.40;3.00;;;;;29.98;45.73;97630.34;6077591;28;97615;-58
2021/08/01 15:45:25;;;;;;;;;4.00;4.00;;;;;29.82;45.66;97626.13;6070962;28;97322;-59
2021/08/01 15:48:41;;;;;;;;;3.80;3.80;;;;;29.76;46.26;97619.31;6075803;28;97324;-58
2021/08/01 15:51:50;;;;;;;;;4.00;3.50;;;;;29.63;46.44;97615.97;6089955;28;96484;-58
2021/08/01 15:55:03;;;;;;;;;3.00;2.40;;;;;29.56;46.58;97613.91;6077092;28;97542;-58
2021/08/01 15:58:18;;;;;;;;;5.40;4.60;;;;;29.35;46.52;97591.41;6076821;28;97319;-58
2021/08/01 16:01:29;;;;;;;;;5.00;5.00;;;;;29.40;46.87;97616.06;6084781;28;97529;-58
2021/08/01 16:04:42;;;;;;;;;6.80;5.80;;;;;29.32;47.51;97616.34;6083221;28;97220;-58
2021/08/01 16:07:49;;;;;;;;;6.00;6.00;;;;;29.23;47.55;97625.72;6084208;28;97836;-58
2021/08/01 16:11:00;;;;;;;;;6.40;6.40;;;;;29.13;47.51;97615.25;6081208;28;97133;-59
2021/08/01 16:14:09;;;;;;;;;6.00;5.00;;;;;29.04;47.91;97609.16;6085942;28;97440;-57
2021/08/01 16:17:24;;;;;;;;;8.40;7.00;;;;;28.96;48.39;97613.03;6091509;28;97543;-57
2021/08/01 16:20:30;;;;;;;;;7.00;7.00;;;;;28.89;49.59;97603.78;6089095;28;97451;-58
2021/08/01 16:23:53;;;;;;;;;8.00;7.00;;;;;28.77;50.40;97599.25;6085308;28;97366;-58
2021/08/01 16:26:57;;;;;;;;;7.25;7.00;;;;;28.56;50.07;97583.03;6089769;28;97081;-59
2021/08/01 16:30:03;;;;;;;;;7.20;6.00;;;;;28.60;50.16;97596.94;6089475;28;97509;-59
2021/08/01 16:33:08;;;;;;;;;8.25;7.25;;;;;28.53;50.72;97591.28;6091333;28;96852;-59
2021/08/01 16:36:16;;;;;;;;;6.40;6.00;;;;;28.47;51.22;97593.56;6090787;28;97538;-58
2021/08/01 16:39:20;;;;;;;;;8.00;7.60;;;;;28.41;52.28;97584.75;6089320;28;97611;-59
2021/08/01 16:42:31;;;;;;;;;9.50;8.50;;;;;28.31;53.25;97585.38;6092278;28;96593;-59
2021/08/01 16:45:47;;;;;;;;;6.60;6.20;;;;;28.24;53.22;97570.59;6091019;28;97499;-58
2021/08/01 16:48:54;;;;;;;;;6.00;6.00;;;;;28.16;53.23;97577.97;6072073;28;97510;-58
2021/08/01 16:52:12;;;;;;;;;7.25;6.25;;;;;28.07;53.16;97576.56;6073058;28;97602;-57
2021/08/01 16:55:18;;;;;;;;;8.60;8.00;;;;;28.02;53.03;97559.09;6089684;28;97192;-59
2021/08/01 16:58:26;;;;;;;;;5.75;5.00;;;;;28.01;54.01;97537.28;6090350;28;97419;-57
2021/08/01 17:01:34;;;;;;;;;8.00;8.00;;;;;27.50;54.17;97459.22;6093436;28;97544;-58
2021/08/01 17:04:43;;;;;;;;;10.00;8.40;;;;;27.85;53.05;97542.16;6092520;28;96420;-58
2021/08/01 17:08:02;;;;;;;;;8.40;7.40;;;;;27.86;52.14;97579.75;6079410;28;97538;-58
2021/08/01 17:11:11;;;;;;;;;7.00;7.00;;;;;27.75;52.51;97600.91;6093288;28;96761;-59
2021/08/01 17:14:16;;;;;;;;;11.00;10.00;;;;;27.45;55.41;97607.00;6088106;28;97013;-57
2021/08/01 17:17:21;;;;;;;;;9.00;8.00;;;;;27.40;56.14;97612.81;6086852;28;97549;-57
2021/08/01 17:20:28;;;;;;;;;8.80;8.00;;;;;27.37;56.02;97621.00;6086397;28;97920;-57
2021/08/01 17:23:36;;;;;;;;;8.00;7.00;;;;;27.34;56.23;97617.03;6072691;28;97579;-58
2021/08/01 17:26:40;;;;;;;;;6.60;6.60;;;;;27.34;56.23;97621.75;6090606;28;97444;-59
2021/08/01 17:29:44;;;;;;;;;9.60;9.00;;;;;27.34;56.61;97628.09;6084650;28;98120;-61